PWSweather.com
Personal Weather Stations
Station Observations
BREEJEDURP
'sGravenzande, WestlandNL

'sGravenzandeWestlandNL

Lat: 52.00095260000001, Lon: 4.174256600000035

Elevation: 3

Station Type: Davis Vantage Pro2 Plus

www.breejedurp.nl

High Low Average
Temperature 43.9°F6.6°C 39.2°F4.0°C 41.9°F5.5°C
Dew Point 37.2°F2.9°C 31.5°F-0.3°C 34.5°F1.4°C
Winds 29.0 mph 46.7 kmh 5.0 mph 8.0 kmh 18.0 mph W29.0 kmh W
Wind Gusts 41.0 mph66.0 kmh 10.0 mph16.1 kmh 26.0 mph41.8 kmh
Humidity 82% 71% 75%
Pressure 29.70 in1005.8 mb 29.27 in991.2 mb -
Precipitation 0.04 in1.0 mm - -
Hour Temp Dew Point Humidity Winds Wind Gusts Pressure Precip Precip Rate Daily Precip Total
12:04 AM 42.3°F5.7°C 34.9°F1.6°C 75% 16.0 mph WNW25.7 kmh WNW 21.0 mph33.8 kmh 29.27 in991.2 mb 0.00 in0.0 mm 0.00 in0.0 mm 0.00 in0.0 mm
12:09 AM 41.7°F5.4°C 34.4°F1.3°C 75% 18.0 mph WNW29.0 kmh WNW 23.0 mph37.0 kmh 29.28 in991.5 mb 0.00 in0.0 mm 0.00 in0.0 mm 0.00 in0.0 mm
12:14 AM 41.0°F5.0°C 34.7°F1.5°C 78% 14.0 mph NW22.5 kmh NW 23.0 mph37.0 kmh 29.28 in991.5 mb 0.00 in0.0 mm 0.00 in0.0 mm 0.00 in0.0 mm
12:19 AM 40.8°F4.9°C 35.5°F1.9°C 81% 10.0 mph W16.1 kmh W 12.0 mph19.3 kmh 29.28 in991.5 mb 0.00 in0.0 mm 0.00 in0.0 mm 0.00 in0.0 mm
12:24 AM 40.8°F4.9°C 35.8°F2.1°C 82% 13.0 mph WNW20.9 kmh WNW 19.0 mph30.6 kmh 29.28 in991.5 mb 0.00 in0.0 mm 0.00 in0.0 mm 0.00 in0.0 mm
12:29 AM 40.8°F4.9°C 34.8°F1.6°C 79% 11.0 mph WNW17.7 kmh WNW 15.0 mph24.1 kmh 29.28 in991.5 mb 0.00 in0.0 mm 0.00 in0.0 mm 0.00 in0.0 mm
12:34 AM 41.2°F5.1°C 34.9°F1.6°C 78% 12.0 mph WNW19.3 kmh WNW 18.0 mph29.0 kmh 29.28 in991.5 mb 0.00 in0.0 mm 0.00 in0.0 mm 0.00 in0.0 mm
12:39 AM 41.7°F5.4°C 35.1°F1.7°C 77% 16.0 mph W25.7 kmh W 23.0 mph37.0 kmh 29.28 in991.5 mb 0.00 in0.0 mm 0.00 in0.0 mm 0.00 in0.0 mm
12:44 AM 41.5°F5.3°C 34.9°F1.6°C 77% 18.0 mph W29.0 kmh W 31.0 mph49.9 kmh 29.28 in991.5 mb 0.00 in0.0 mm 0.00 in0.0 mm 0.00 in0.0 mm
12:49 AM 41.5°F5.3°C 34.9°F1.6°C 77% 16.0 mph W25.7 kmh W 23.0 mph37.0 kmh 29.28 in991.5 mb 0.00 in0.0 mm 0.00 in0.0 mm 0.00 in0.0 mm
12:54 AM 41.4°F5.2°C 34.7°F1.5°C 77% 14.0 mph W22.5 kmh W 24.0 mph38.6 kmh 29.28 in991.5 mb 0.00 in0.0 mm 0.00 in0.0 mm 0.00 in0.0 mm
12:59 AM 41.5°F5.3°C 35.2°F1.8°C 78% 15.0 mph WNW24.1 kmh WNW 20.0 mph32.2 kmh 29.28 in991.5 mb 0.00 in0.0 mm 0.00 in0.0 mm 0.00 in0.0 mm
01:04 AM 41.5°F5.3°C 35.5°F1.9°C 79% 20.0 mph W32.2 kmh W 31.0 mph49.9 kmh 29.28 in991.5 mb 0.00 in0.0 mm 0.00 in0.0 mm 0.00 in0.0 mm
01:09 AM 41.4°F5.2°C 34.7°F1.5°C 77% 17.0 mph W27.4 kmh W 25.0 mph40.2 kmh 29.28 in991.5 mb 0.00 in0.0 mm 0.00 in0.0 mm 0.00 in0.0 mm
01:14 AM 41.4°F5.2°C 34.4°F1.3°C 76% 18.0 mph W29.0 kmh W 25.0 mph40.2 kmh 29.28 in991.5 mb 0.00 in0.0 mm 0.00 in0.0 mm 0.00 in0.0 mm
01:19 AM 41.4°F5.2°C 34.7°F1.5°C 77% 17.0 mph W27.4 kmh W 25.0 mph40.2 kmh 29.28 in991.5 mb 0.00 in0.0 mm 0.00 in0.0 mm 0.00 in0.0 mm
01:24 AM 41.2°F5.1°C 34.2°F1.2°C 76% 15.0 mph W24.1 kmh W 24.0 mph38.6 kmh 29.28 in991.5 mb 0.00 in0.0 mm 0.00 in0.0 mm 0.00 in0.0 mm
01:29 AM 41.2°F5.1°C 34.2°F1.2°C 76% 21.0 mph W33.8 kmh W 29.0 mph46.7 kmh 29.28 in991.5 mb 0.00 in0.0 mm 0.00 in0.0 mm 0.00 in0.0 mm
01:34 AM 41.0°F5.0°C 34.0°F1.1°C 76% 14.0 mph W22.5 kmh W 19.0 mph30.6 kmh 29.28 in991.5 mb 0.00 in0.0 mm 0.00 in0.0 mm 0.00 in0.0 mm
01:39 AM 41.0°F5.0°C 34.0°F1.1°C 76% 15.0 mph WNW24.1 kmh WNW 22.0 mph35.4 kmh 29.28 in991.5 mb 0.00 in0.0 mm 0.00 in0.0 mm 0.00 in0.0 mm
01:44 AM 41.0°F5.0°C 33.7°F0.9°C 75% 16.0 mph W25.7 kmh W 23.0 mph37.0 kmh 29.28 in991.5 mb 0.00 in0.0 mm 0.00 in0.0 mm 0.00 in0.0 mm
01:49 AM 41.0°F5.0°C 33.4°F0.8°C 74% 15.0 mph W24.1 kmh W 20.0 mph32.2 kmh 29.28 in991.5 mb 0.00 in0.0 mm 0.00 in0.0 mm 0.00 in0.0 mm
01:54 AM 41.0°F5.0°C 33.4°F0.8°C 74% 13.0 mph W20.9 kmh W 19.0 mph30.6 kmh 29.28 in991.5 mb 0.00 in0.0 mm 0.00 in0.0 mm 0.00 in0.0 mm
01:59 AM 40.8°F4.9°C 33.2°F0.7°C 74% 17.0 mph W27.4 kmh W 24.0 mph38.6 kmh 29.28 in991.5 mb 0.00 in0.0 mm 0.00 in0.0 mm 0.00 in0.0 mm
02:04 AM 40.8°F4.9°C 33.9°F1.1°C 76% 12.0 mph W19.3 kmh W 16.0 mph25.7 kmh 29.28 in991.5 mb 0.00 in0.0 mm 0.00 in0.0 mm 0.00 in0.0 mm
02:09 AM 40.8°F4.9°C 34.5°F1.4°C 78% 14.0 mph W22.5 kmh W 21.0 mph33.8 kmh 29.28 in991.5 mb 0.00 in0.0 mm 0.00 in0.0 mm 0.00 in0.0 mm
02:14 AM 40.8°F4.9°C 34.2°F1.2°C 77% 21.0 mph WNW33.8 kmh WNW 26.0 mph41.8 kmh 29.28 in991.5 mb 0.00 in0.0 mm 0.00 in0.0 mm 0.00 in0.0 mm
02:19 AM 40.3°F4.6°C 34.0°F1.1°C 78% 20.0 mph W32.2 kmh W 27.0 mph43.5 kmh 29.28 in991.5 mb 0.00 in0.0 mm 0.00 in0.0 mm 0.00 in0.0 mm
02:24 AM 40.3°F4.6°C 33.7°F0.9°C 77% 13.0 mph WNW20.9 kmh WNW 35.0 mph56.3 kmh 29.29 in991.9 mb 0.00 in0.0 mm 0.00 in0.0 mm 0.00 in0.0 mm
02:29 AM 40.5°F4.7°C 33.5°F0.8°C 76% 17.0 mph W27.4 kmh W 26.0 mph41.8 kmh 29.29 in991.9 mb 0.00 in0.0 mm 0.00 in0.0 mm 0.00 in0.0 mm
02:34 AM 40.5°F4.7°C 33.2°F0.7°C 75% 15.0 mph W24.1 kmh W 24.0 mph38.6 kmh 29.29 in991.9 mb 0.00 in0.0 mm 0.00 in0.0 mm 0.00 in0.0 mm
02:39 AM 40.5°F4.7°C 32.8°F0.4°C 74% 14.0 mph W22.5 kmh W 20.0 mph32.2 kmh 29.29 in991.9 mb 0.00 in0.0 mm 0.00 in0.0 mm 0.00 in0.0 mm
02:44 AM 40.6°F4.8°C 33.7°F0.9°C 76% 18.0 mph W29.0 kmh W 29.0 mph46.7 kmh 29.30 in992.2 mb 0.00 in0.0 mm 0.00 in0.0 mm 0.01 in0.3 mm
02:49 AM 39.6°F4.2°C 33.0°F0.6°C 77% 13.0 mph WNW20.9 kmh WNW 19.0 mph30.6 kmh 29.30 in992.2 mb 0.00 in0.0 mm 0.00 in0.0 mm 0.01 in0.3 mm
02:54 AM 39.9°F4.4°C 33.6°F0.9°C 78% 14.0 mph W22.5 kmh W 17.0 mph27.4 kmh 29.30 in992.2 mb 0.00 in0.0 mm 0.00 in0.0 mm 0.02 in0.5 mm
02:59 AM 40.3°F4.6°C 34.0°F1.1°C 78% 16.0 mph W25.7 kmh W 25.0 mph40.2 kmh 29.30 in992.2 mb 0.00 in0.0 mm 0.00 in0.0 mm 0.02 in0.5 mm
03:04 AM 40.3°F4.6°C 34.0°F1.1°C 78% 15.0 mph W24.1 kmh W 25.0 mph40.2 kmh 29.30 in992.2 mb 0.00 in0.0 mm 0.00 in0.0 mm 0.02 in0.5 mm
03:09 AM 40.3°F4.6°C 33.7°F0.9°C 77% 15.0 mph WNW24.1 kmh WNW 23.0 mph37.0 kmh 29.30 in992.2 mb 0.00 in0.0 mm 0.00 in0.0 mm 0.02 in0.5 mm
03:14 AM 40.5°F4.7°C 34.2°F1.2°C 78% 19.0 mph WNW30.6 kmh WNW 24.0 mph38.6 kmh 29.31 in992.6 mb 0.00 in0.0 mm 0.00 in0.0 mm 0.02 in0.5 mm
03:19 AM 40.5°F4.7°C 33.8°F1.0°C 77% 13.0 mph W20.9 kmh W 23.0 mph37.0 kmh 29.31 in992.6 mb 0.00 in0.0 mm 0.00 in0.0 mm 0.02 in0.5 mm
03:24 AM 40.5°F4.7°C 33.8°F1.0°C 77% 17.0 mph W27.4 kmh W 25.0 mph40.2 kmh 29.31 in992.6 mb 0.00 in0.0 mm 0.00 in0.0 mm 0.02 in0.5 mm
03:29 AM 40.5°F4.7°C 33.8°F1.0°C 77% 13.0 mph W20.9 kmh W 19.0 mph30.6 kmh 29.31 in992.6 mb 0.00 in0.0 mm 0.00 in0.0 mm 0.02 in0.5 mm
03:34 AM 40.5°F4.7°C 33.5°F0.8°C 76% 19.0 mph W30.6 kmh W 25.0 mph40.2 kmh 29.32 in992.9 mb 0.00 in0.0 mm 0.00 in0.0 mm 0.02 in0.5 mm
03:39 AM 40.5°F4.7°C 33.5°F0.8°C 76% 21.0 mph W33.8 kmh W 32.0 mph51.5 kmh 29.32 in992.9 mb 0.00 in0.0 mm 0.00 in0.0 mm 0.02 in0.5 mm
03:44 AM 40.5°F4.7°C 33.2°F0.7°C 75% 18.0 mph WNW29.0 kmh WNW 28.0 mph45.1 kmh 29.32 in992.9 mb 0.00 in0.0 mm 0.00 in0.0 mm 0.02 in0.5 mm
03:49 AM 40.5°F4.7°C 32.5°F0.3°C 73% 19.0 mph W30.6 kmh W 27.0 mph43.5 kmh 29.32 in992.9 mb 0.00 in0.0 mm 0.00 in0.0 mm 0.02 in0.5 mm
03:54 AM 40.5°F4.7°C 32.5°F0.3°C 73% 21.0 mph WNW33.8 kmh WNW 32.0 mph51.5 kmh 29.32 in992.9 mb 0.00 in0.0 mm 0.00 in0.0 mm 0.02 in0.5 mm
03:59 AM 40.3°F4.6°C 32.0°F0.0°C 72% 20.0 mph W32.2 kmh W 25.0 mph40.2 kmh 29.32 in992.9 mb 0.00 in0.0 mm 0.00 in0.0 mm 0.02 in0.5 mm
04:04 AM 40.1°F4.5°C 31.5°F-0.3°C 71% 21.0 mph WNW33.8 kmh WNW 27.0 mph43.5 kmh 29.33 in993.2 mb 0.00 in0.0 mm 0.00 in0.0 mm 0.02 in0.5 mm
04:09 AM 40.1°F4.5°C 31.5°F-0.3°C 71% 20.0 mph WNW32.2 kmh WNW 30.0 mph48.3 kmh 29.32 in992.9 mb 0.00 in0.0 mm 0.00 in0.0 mm 0.02 in0.5 mm
04:14 AM 40.1°F4.5°C 31.8°F-0.1°C 72% 20.0 mph W32.2 kmh W 29.0 mph46.7 kmh 29.33 in993.2 mb 0.00 in0.0 mm 0.00 in0.0 mm 0.02 in0.5 mm
04:19 AM 40.1°F4.5°C 31.8°F-0.1°C 72% 19.0 mph W30.6 kmh W 27.0 mph43.5 kmh 29.33 in993.2 mb 0.00 in0.0 mm 0.00 in0.0 mm 0.02 in0.5 mm
04:24 AM 40.1°F4.5°C 32.5°F0.3°C 74% 19.0 mph W30.6 kmh W 27.0 mph43.5 kmh 29.33 in993.2 mb 0.00 in0.0 mm 0.00 in0.0 mm 0.02 in0.5 mm
04:29 AM 40.1°F4.5°C 31.8°F-0.1°C 72% 18.0 mph W29.0 kmh W 26.0 mph41.8 kmh 29.33 in993.2 mb 0.00 in0.0 mm 0.00 in0.0 mm 0.02 in0.5 mm
04:34 AM 40.1°F4.5°C 32.2°F0.1°C 73% 15.0 mph W24.1 kmh W 21.0 mph33.8 kmh 29.34 in993.6 mb 0.00 in0.0 mm 0.00 in0.0 mm 0.02 in0.5 mm
04:39 AM 39.9°F4.4°C 32.3°F0.2°C 74% 20.0 mph WNW32.2 kmh WNW 25.0 mph40.2 kmh 29.34 in993.6 mb 0.00 in0.0 mm 0.00 in0.0 mm 0.02 in0.5 mm
04:44 AM 39.2°F4.0°C 32.3°F0.2°C 76% 16.0 mph WNW25.7 kmh WNW 21.0 mph33.8 kmh 29.34 in993.6 mb 0.00 in0.0 mm 0.00 in0.0 mm 0.02 in0.5 mm
04:49 AM 39.6°F4.2°C 32.6°F0.3°C 76% 19.0 mph WNW30.6 kmh WNW 26.0 mph41.8 kmh 29.34 in993.6 mb 0.00 in0.0 mm 0.00 in0.0 mm 0.02 in0.5 mm
04:54 AM 39.7°F4.3°C 32.5°F0.3°C 75% 21.0 mph WNW33.8 kmh WNW 27.0 mph43.5 kmh 29.34 in993.6 mb 0.00 in0.0 mm 0.00 in0.0 mm 0.02 in0.5 mm
04:59 AM 39.6°F4.2°C 32.6°F0.3°C 76% 20.0 mph WNW32.2 kmh WNW 29.0 mph46.7 kmh 29.34 in993.6 mb 0.00 in0.0 mm 0.00 in0.0 mm 0.02 in0.5 mm
05:04 AM 39.7°F4.3°C 32.5°F0.3°C 75% 20.0 mph W32.2 kmh W 32.0 mph51.5 kmh 29.34 in993.6 mb 0.00 in0.0 mm 0.00 in0.0 mm 0.02 in0.5 mm
05:09 AM 39.7°F4.3°C 32.5°F0.3°C 75% 13.0 mph W20.9 kmh W 22.0 mph35.4 kmh 29.34 in993.6 mb 0.00 in0.0 mm 0.00 in0.0 mm 0.02 in0.5 mm
05:14 AM 39.6°F4.2°C 32.3°F0.2°C 75% 20.0 mph W32.2 kmh W 31.0 mph49.9 kmh 29.34 in993.6 mb 0.01 in0.3 mm 0.10 in2.5 mm 0.03 in0.8 mm
05:19 AM 39.7°F4.3°C 32.8°F0.4°C 76% 21.0 mph W33.8 kmh W 31.0 mph49.9 kmh 29.34 in993.6 mb 0.00 in0.0 mm 0.00 in0.0 mm 0.03 in0.8 mm
05:24 AM 39.7°F4.3°C 32.2°F0.1°C 74% 20.0 mph W32.2 kmh W 28.0 mph45.1 kmh 29.35 in993.9 mb 0.00 in0.0 mm 0.00 in0.0 mm 0.03 in0.8 mm
05:29 AM 39.7°F4.3°C 31.8°F-0.1°C 73% 18.0 mph W29.0 kmh W 30.0 mph48.3 kmh 29.35 in993.9 mb 0.00 in0.0 mm 0.00 in0.0 mm 0.03 in0.8 mm
05:34 AM 39.7°F4.3°C 31.8°F-0.1°C 73% 23.0 mph W37.0 kmh W 30.0 mph48.3 kmh 29.35 in993.9 mb 0.00 in0.0 mm 0.00 in0.0 mm 0.03 in0.8 mm
05:39 AM 39.4°F4.1°C 31.8°F-0.1°C 74% 22.0 mph W35.4 kmh W 33.0 mph53.1 kmh 29.35 in993.9 mb 0.00 in0.0 mm 0.00 in0.0 mm 0.03 in0.8 mm
05:44 AM 39.4°F4.1°C 32.5°F0.3°C 76% 16.0 mph W25.7 kmh W 25.0 mph40.2 kmh 29.36 in994.2 mb 0.00 in0.0 mm 0.00 in0.0 mm 0.03 in0.8 mm
05:49 AM 39.6°F4.2°C 32.0°F0.0°C 74% 25.0 mph W40.2 kmh W 38.0 mph61.2 kmh 29.36 in994.2 mb 0.00 in0.0 mm 0.00 in0.0 mm 0.03 in0.8 mm
05:54 AM 39.7°F4.3°C 32.5°F0.3°C 75% 22.0 mph W35.4 kmh W 33.0 mph53.1 kmh 29.36 in994.2 mb 0.00 in0.0 mm 0.00 in0.0 mm 0.03 in0.8 mm
05:59 AM 39.7°F4.3°C 32.5°F0.3°C 75% 17.0 mph W27.4 kmh W 25.0 mph40.2 kmh 29.36 in994.2 mb 0.00 in0.0 mm 0.00 in0.0 mm 0.03 in0.8 mm
06:04 AM 39.9°F4.4°C 32.7°F0.4°C 75% 19.0 mph WNW30.6 kmh WNW 32.0 mph51.5 kmh 29.37 in994.6 mb 0.00 in0.0 mm 0.00 in0.0 mm 0.03 in0.8 mm
06:09 AM 39.9°F4.4°C 31.6°F-0.2°C 72% 19.0 mph W30.6 kmh W 27.0 mph43.5 kmh 29.37 in994.6 mb 0.00 in0.0 mm 0.00 in0.0 mm 0.03 in0.8 mm
06:14 AM 39.9°F4.4°C 31.6°F-0.2°C 72% 23.0 mph W37.0 kmh W 31.0 mph49.9 kmh 29.37 in994.6 mb 0.00 in0.0 mm 0.00 in0.0 mm 0.03 in0.8 mm
06:19 AM 39.9°F4.4°C 32.3°F0.2°C 74% 18.0 mph W29.0 kmh W 33.0 mph53.1 kmh 29.38 in994.9 mb 0.00 in0.0 mm 0.00 in0.0 mm 0.03 in0.8 mm
06:24 AM 39.7°F4.3°C 31.8°F-0.1°C 73% 29.0 mph W46.7 kmh W 37.0 mph59.5 kmh 29.38 in994.9 mb 0.00 in0.0 mm 0.00 in0.0 mm 0.03 in0.8 mm
06:29 AM 39.9°F4.4°C 32.0°F0.0°C 73% 21.0 mph W33.8 kmh W 29.0 mph46.7 kmh 29.38 in994.9 mb 0.00 in0.0 mm 0.00 in0.0 mm 0.03 in0.8 mm
06:34 AM 39.7°F4.3°C 31.5°F-0.3°C 72% 23.0 mph W37.0 kmh W 32.0 mph51.5 kmh 29.38 in994.9 mb 0.00 in0.0 mm 0.00 in0.0 mm 0.03 in0.8 mm
06:39 AM 39.7°F4.3°C 32.2°F0.1°C 74% 19.0 mph W30.6 kmh W 33.0 mph53.1 kmh 29.39 in995.3 mb 0.00 in0.0 mm 0.00 in0.0 mm 0.03 in0.8 mm
06:44 AM 39.7°F4.3°C 31.8°F-0.1°C 73% 21.0 mph W33.8 kmh W 35.0 mph56.3 kmh 29.39 in995.3 mb 0.00 in0.0 mm 0.00 in0.0 mm 0.03 in0.8 mm
06:49 AM 39.7°F4.3°C 31.8°F-0.1°C 73% 24.0 mph W38.6 kmh W 34.0 mph54.7 kmh 29.39 in995.3 mb 0.00 in0.0 mm 0.00 in0.0 mm 0.03 in0.8 mm
06:54 AM 39.7°F4.3°C 31.8°F-0.1°C 73% 19.0 mph W30.6 kmh W 25.0 mph40.2 kmh 29.39 in995.3 mb 0.00 in0.0 mm 0.00 in0.0 mm 0.03 in0.8 mm
06:59 AM 39.7°F4.3°C 31.8°F-0.1°C 73% 21.0 mph W33.8 kmh W 32.0 mph51.5 kmh 29.39 in995.3 mb 0.00 in0.0 mm 0.00 in0.0 mm 0.03 in0.8 mm
07:04 AM 39.7°F4.3°C 31.8°F-0.1°C 73% 20.0 mph W32.2 kmh W 29.0 mph46.7 kmh 29.40 in995.6 mb 0.00 in0.0 mm 0.00 in0.0 mm 0.03 in0.8 mm
07:09 AM 39.9°F4.4°C 32.3°F0.2°C 74% 23.0 mph W37.0 kmh W 31.0 mph49.9 kmh 29.40 in995.6 mb 0.00 in0.0 mm 0.00 in0.0 mm 0.03 in0.8 mm
07:14 AM 39.9°F4.4°C 31.6°F-0.2°C 72% 22.0 mph W35.4 kmh W 32.0 mph51.5 kmh 29.41 in995.9 mb 0.00 in0.0 mm 0.00 in0.0 mm 0.03 in0.8 mm
07:19 AM 39.9°F4.4°C 32.0°F0.0°C 73% 17.0 mph W27.4 kmh W 25.0 mph40.2 kmh 29.41 in995.9 mb 0.00 in0.0 mm 0.00 in0.0 mm 0.03 in0.8 mm
07:24 AM 39.9°F4.4°C 32.3°F0.2°C 74% 22.0 mph W35.4 kmh W 30.0 mph48.3 kmh 29.41 in995.9 mb 0.00 in0.0 mm 0.00 in0.0 mm 0.03 in0.8 mm
07:29 AM 39.9°F4.4°C 32.0°F0.0°C 73% 19.0 mph W30.6 kmh W 30.0 mph48.3 kmh 29.41 in995.9 mb 0.00 in0.0 mm 0.00 in0.0 mm 0.03 in0.8 mm
07:34 AM 39.9°F4.4°C 32.3°F0.2°C 74% 19.0 mph W30.6 kmh W 28.0 mph45.1 kmh 29.41 in995.9 mb 0.00 in0.0 mm 0.00 in0.0 mm 0.03 in0.8 mm
07:39 AM 39.9°F4.4°C 32.0°F0.0°C 73% 19.0 mph W30.6 kmh W 29.0 mph46.7 kmh 29.42 in996.3 mb 0.00 in0.0 mm 0.00 in0.0 mm 0.03 in0.8 mm
07:44 AM 39.6°F4.2°C 32.6°F0.3°C 76% 23.0 mph W37.0 kmh W 34.0 mph54.7 kmh 29.41 in995.9 mb 0.00 in0.0 mm 0.00 in0.0 mm 0.03 in0.8 mm
07:49 AM 39.7°F4.3°C 32.8°F0.4°C 76% 22.0 mph W35.4 kmh W 32.0 mph51.5 kmh 29.42 in996.3 mb 0.00 in0.0 mm 0.00 in0.0 mm 0.03 in0.8 mm
07:54 AM 39.7°F4.3°C 32.8°F0.4°C 76% 19.0 mph W30.6 kmh W 24.0 mph38.6 kmh 29.42 in996.3 mb 0.00 in0.0 mm 0.00 in0.0 mm 0.03 in0.8 mm
07:59 AM 39.9°F4.4°C 33.3°F0.7°C 77% 22.0 mph W35.4 kmh W 30.0 mph48.3 kmh 29.42 in996.3 mb 0.00 in0.0 mm 0.00 in0.0 mm 0.04 in1.0 mm
08:04 AM 39.7°F4.3°C 33.5°F0.8°C 78% 21.0 mph W33.8 kmh W 32.0 mph51.5 kmh 29.43 in996.6 mb 0.00 in0.0 mm 0.00 in0.0 mm 0.04 in1.0 mm
08:09 AM 39.6°F4.2°C 33.6°F0.9°C 79% 21.0 mph W33.8 kmh W 33.0 mph53.1 kmh 29.44 in997.0 mb 0.00 in0.0 mm 0.00 in0.0 mm 0.04 in1.0 mm
08:14 AM 39.2°F4.0°C 33.3°F0.7°C 79% 20.0 mph WNW32.2 kmh WNW 27.0 mph43.5 kmh 29.44 in997.0 mb 0.00 in0.0 mm 0.00 in0.0 mm 0.04 in1.0 mm
08:19 AM 39.2°F4.0°C 33.6°F0.9°C 80% 21.0 mph W33.8 kmh W 29.0 mph46.7 kmh 29.44 in997.0 mb 0.00 in0.0 mm 0.00 in0.0 mm 0.04 in1.0 mm
08:24 AM 39.4°F4.1°C 33.7°F0.9°C 80% 22.0 mph W35.4 kmh W 30.0 mph48.3 kmh 29.44 in997.0 mb 0.00 in0.0 mm 0.00 in0.0 mm 0.04 in1.0 mm
08:29 AM 39.7°F4.3°C 33.1°F0.6°C 77% 19.0 mph WNW30.6 kmh WNW 29.0 mph46.7 kmh 29.44 in997.0 mb 0.00 in0.0 mm 0.00 in0.0 mm 0.04 in1.0 mm
08:34 AM 40.1°F4.5°C 33.5°F0.8°C 77% 22.0 mph W35.4 kmh W 33.0 mph53.1 kmh 29.45 in997.3 mb 0.00 in0.0 mm 0.00 in0.0 mm 0.04 in1.0 mm
08:39 AM 40.3°F4.6°C 33.7°F0.9°C 77% 22.0 mph W35.4 kmh W 33.0 mph53.1 kmh 29.45 in997.3 mb 0.00 in0.0 mm 0.00 in0.0 mm 0.04 in1.0 mm
08:44 AM 40.3°F4.6°C 33.3°F0.7°C 76% 17.0 mph W27.4 kmh W 26.0 mph41.8 kmh 29.45 in997.3 mb 0.00 in0.0 mm 0.00 in0.0 mm 0.04 in1.0 mm
08:49 AM 40.3°F4.6°C 33.0°F0.6°C 75% 21.0 mph WNW33.8 kmh WNW 28.0 mph45.1 kmh 29.45 in997.3 mb 0.00 in0.0 mm 0.00 in0.0 mm 0.04 in1.0 mm
08:54 AM 40.5°F4.7°C 33.5°F0.8°C 76% 24.0 mph W38.6 kmh W 30.0 mph48.3 kmh 29.45 in997.3 mb 0.00 in0.0 mm 0.00 in0.0 mm 0.04 in1.0 mm
08:59 AM 40.5°F4.7°C 33.5°F0.8°C 76% 18.0 mph W29.0 kmh W 28.0 mph45.1 kmh 29.46 in997.6 mb 0.00 in0.0 mm 0.00 in0.0 mm 0.04 in1.0 mm
09:04 AM 40.5°F4.7°C 33.8°F1.0°C 77% 23.0 mph W37.0 kmh W 29.0 mph46.7 kmh 29.46 in997.6 mb 0.00 in0.0 mm 0.00 in0.0 mm 0.04 in1.0 mm
09:09 AM 40.6°F4.8°C 34.0°F1.1°C 77% 23.0 mph WNW37.0 kmh WNW 35.0 mph56.3 kmh 29.47 in998.0 mb 0.00 in0.0 mm 0.00 in0.0 mm 0.04 in1.0 mm
09:14 AM 40.6°F4.8°C 34.0°F1.1°C 77% 15.0 mph W24.1 kmh W 24.0 mph38.6 kmh 29.46 in997.6 mb 0.00 in0.0 mm 0.00 in0.0 mm 0.04 in1.0 mm
09:19 AM 40.8°F4.9°C 33.9°F1.1°C 76% 26.0 mph W41.8 kmh W 32.0 mph51.5 kmh 29.47 in998.0 mb 0.00 in0.0 mm 0.00 in0.0 mm 0.04 in1.0 mm
09:24 AM 40.8°F4.9°C 33.5°F0.8°C 75% 24.0 mph W38.6 kmh W 37.0 mph59.5 kmh 29.47 in998.0 mb 0.00 in0.0 mm 0.00 in0.0 mm 0.04 in1.0 mm
09:29 AM 40.8°F4.9°C 33.9°F1.1°C 76% 21.0 mph NW33.8 kmh NW 33.0 mph53.1 kmh 29.47 in998.0 mb 0.00 in0.0 mm 0.00 in0.0 mm 0.04 in1.0 mm
09:34 AM 41.0°F5.0°C 34.4°F1.3°C 77% 18.0 mph W29.0 kmh W 28.0 mph45.1 kmh 29.48 in998.3 mb 0.00 in0.0 mm 0.00 in0.0 mm 0.04 in1.0 mm
09:39 AM 41.0°F5.0°C 34.4°F1.3°C 77% 23.0 mph W37.0 kmh W 34.0 mph54.7 kmh 29.48 in998.3 mb 0.00 in0.0 mm 0.00 in0.0 mm 0.04 in1.0 mm
09:44 AM 40.8°F4.9°C 33.9°F1.1°C 76% 23.0 mph WNW37.0 kmh WNW 34.0 mph54.7 kmh 29.48 in998.3 mb 0.00 in0.0 mm 0.00 in0.0 mm 0.04 in1.0 mm
09:49 AM 41.0°F5.0°C 34.0°F1.1°C 76% 22.0 mph W35.4 kmh W 34.0 mph54.7 kmh 29.48 in998.3 mb 0.00 in0.0 mm 0.00 in0.0 mm 0.04 in1.0 mm
09:54 AM 41.0°F5.0°C 34.4°F1.3°C 77% 18.0 mph WNW29.0 kmh WNW 28.0 mph45.1 kmh 29.49 in998.6 mb 0.00 in0.0 mm 0.00 in0.0 mm 0.04 in1.0 mm
09:59 AM 41.0°F5.0°C 34.7°F1.5°C 78% 22.0 mph WNW35.4 kmh WNW 33.0 mph53.1 kmh 29.49 in998.6 mb 0.00 in0.0 mm 0.00 in0.0 mm 0.04 in1.0 mm
10:04 AM 41.0°F5.0°C 34.0°F1.1°C 76% 19.0 mph W30.6 kmh W 24.0 mph38.6 kmh 29.49 in998.6 mb 0.00 in0.0 mm 0.00 in0.0 mm 0.04 in1.0 mm
10:09 AM 41.0°F5.0°C 33.7°F0.9°C 75% 19.0 mph WNW30.6 kmh WNW 29.0 mph46.7 kmh 29.49 in998.6 mb 0.00 in0.0 mm 0.00 in0.0 mm 0.04 in1.0 mm
10:14 AM 41.2°F5.1°C 34.2°F1.2°C 76% 25.0 mph W40.2 kmh W 34.0 mph54.7 kmh 29.50 in999.0 mb 0.00 in0.0 mm 0.00 in0.0 mm 0.04 in1.0 mm
10:19 AM 41.2°F5.1°C 34.2°F1.2°C 76% 25.0 mph W40.2 kmh W 36.0 mph57.9 kmh 29.51 in999.3 mb 0.00 in0.0 mm 0.00 in0.0 mm 0.04 in1.0 mm
10:24 AM 41.2°F5.1°C 34.2°F1.2°C 76% 18.0 mph WNW29.0 kmh WNW 28.0 mph45.1 kmh 29.51 in999.3 mb 0.00 in0.0 mm 0.00 in0.0 mm 0.04 in1.0 mm
10:29 AM 41.4°F5.2°C 34.7°F1.5°C 77% 18.0 mph W29.0 kmh W 27.0 mph43.5 kmh 29.51 in999.3 mb 0.00 in0.0 mm 0.00 in0.0 mm 0.04 in1.0 mm
10:34 AM 41.4°F5.2°C 34.7°F1.5°C 77% 25.0 mph WNW40.2 kmh WNW 32.0 mph51.5 kmh 29.51 in999.3 mb 0.00 in0.0 mm 0.00 in0.0 mm 0.04 in1.0 mm
10:39 AM 41.2°F5.1°C 34.5°F1.4°C 77% 18.0 mph WNW29.0 kmh WNW 28.0 mph45.1 kmh 29.52 in999.7 mb 0.00 in0.0 mm 0.00 in0.0 mm 0.04 in1.0 mm
10:44 AM 41.4°F5.2°C 35.0°F1.7°C 78% 20.0 mph W32.2 kmh W 30.0 mph48.3 kmh 29.52 in999.7 mb 0.00 in0.0 mm 0.00 in0.0 mm 0.04 in1.0 mm
10:49 AM 41.4°F5.2°C 34.7°F1.5°C 77% 21.0 mph W33.8 kmh W 34.0 mph54.7 kmh 29.52 in999.7 mb 0.00 in0.0 mm 0.00 in0.0 mm 0.04 in1.0 mm
10:54 AM 41.4°F5.2°C 34.7°F1.5°C 77% 19.0 mph W30.6 kmh W 30.0 mph48.3 kmh 29.52 in999.7 mb 0.00 in0.0 mm 0.00 in0.0 mm 0.04 in1.0 mm
10:59 AM 41.4°F5.2°C 35.0°F1.7°C 78% 18.0 mph WNW29.0 kmh WNW 27.0 mph43.5 kmh 29.52 in999.7 mb 0.00 in0.0 mm 0.00 in0.0 mm 0.04 in1.0 mm
11:04 AM 41.4°F5.2°C 34.7°F1.5°C 77% 20.0 mph W32.2 kmh W 32.0 mph51.5 kmh 29.52 in999.7 mb 0.00 in0.0 mm 0.00 in0.0 mm 0.04 in1.0 mm
11:09 AM 41.5°F5.3°C 34.6°F1.4°C 76% 21.0 mph W33.8 kmh W 35.0 mph56.3 kmh 29.52 in999.7 mb 0.00 in0.0 mm 0.00 in0.0 mm 0.04 in1.0 mm
11:14 AM 41.5°F5.3°C 34.9°F1.6°C 77% 20.0 mph W32.2 kmh W 30.0 mph48.3 kmh 29.53 in1000.0 mb 0.00 in0.0 mm 0.00 in0.0 mm 0.04 in1.0 mm
11:19 AM 41.7°F5.4°C 35.1°F1.7°C 77% 25.0 mph WNW40.2 kmh WNW 33.0 mph53.1 kmh 29.54 in1000.3 mb 0.00 in0.0 mm 0.00 in0.0 mm 0.04 in1.0 mm
11:24 AM 41.9°F5.5°C 34.9°F1.6°C 76% 23.0 mph W37.0 kmh W 33.0 mph53.1 kmh 29.53 in1000.0 mb 0.00 in0.0 mm 0.00 in0.0 mm 0.04 in1.0 mm
11:29 AM 42.1°F5.6°C 35.1°F1.7°C 76% 20.0 mph WNW32.2 kmh WNW 29.0 mph46.7 kmh 29.53 in1000.0 mb 0.00 in0.0 mm 0.00 in0.0 mm 0.04 in1.0 mm
11:34 AM 42.3°F5.7°C 35.3°F1.8°C 76% 21.0 mph W33.8 kmh W 32.0 mph51.5 kmh 29.53 in1000.0 mb 0.00 in0.0 mm 0.00 in0.0 mm 0.04 in1.0 mm
11:39 AM 42.3°F5.7°C 35.3°F1.8°C 76% 23.0 mph W37.0 kmh W 30.0 mph48.3 kmh 29.54 in1000.3 mb 0.00 in0.0 mm 0.00 in0.0 mm 0.04 in1.0 mm
11:44 AM 42.4°F5.8°C 34.8°F1.6°C 74% 25.0 mph W40.2 kmh W 32.0 mph51.5 kmh 29.54 in1000.3 mb 0.00 in0.0 mm 0.00 in0.0 mm 0.04 in1.0 mm
11:49 AM 42.4°F5.8°C 34.8°F1.6°C 74% 19.0 mph W30.6 kmh W 29.0 mph46.7 kmh 29.54 in1000.3 mb 0.00 in0.0 mm 0.00 in0.0 mm 0.04 in1.0 mm
11:54 AM 42.4°F5.8°C 35.1°F1.7°C 75% 24.0 mph WNW38.6 kmh WNW 36.0 mph57.9 kmh 29.54 in1000.3 mb 0.00 in0.0 mm 0.00 in0.0 mm 0.04 in1.0 mm
11:59 AM 42.4°F5.8°C 35.4°F1.9°C 76% 20.0 mph W32.2 kmh W 31.0 mph49.9 kmh 29.54 in1000.3 mb 0.00 in0.0 mm 0.00 in0.0 mm 0.04 in1.0 mm
12:04 PM 42.4°F5.8°C 35.1°F1.7°C 75% 22.0 mph W35.4 kmh W 28.0 mph45.1 kmh 29.54 in1000.3 mb 0.00 in0.0 mm 0.00 in0.0 mm 0.04 in1.0 mm
12:09 PM 42.4°F5.8°C 35.1°F1.7°C 75% 24.0 mph W38.6 kmh W 33.0 mph53.1 kmh 29.55 in1000.7 mb 0.00 in0.0 mm 0.00 in0.0 mm 0.04 in1.0 mm
12:14 PM 42.4°F5.8°C 35.4°F1.9°C 76% 21.0 mph W33.8 kmh W 35.0 mph56.3 kmh 29.55 in1000.7 mb 0.00 in0.0 mm 0.00 in0.0 mm 0.04 in1.0 mm
12:19 PM 42.4°F5.8°C 35.1°F1.7°C 75% 24.0 mph W38.6 kmh W 33.0 mph53.1 kmh 29.55 in1000.7 mb 0.00 in0.0 mm 0.00 in0.0 mm 0.04 in1.0 mm
12:24 PM 42.4°F5.8°C 35.1°F1.7°C 75% 27.0 mph W43.5 kmh W 38.0 mph61.2 kmh 29.55 in1000.7 mb 0.00 in0.0 mm 0.00 in0.0 mm 0.04 in1.0 mm
12:29 PM 42.4°F5.8°C 34.8°F1.6°C 74% 23.0 mph WNW37.0 kmh WNW 41.0 mph66.0 kmh 29.55 in1000.7 mb 0.00 in0.0 mm 0.00 in0.0 mm 0.04 in1.0 mm
12:34 PM 42.4°F5.8°C 34.8°F1.6°C 74% 22.0 mph WNW35.4 kmh WNW 31.0 mph49.9 kmh 29.56 in1001.0 mb 0.00 in0.0 mm 0.00 in0.0 mm 0.04 in1.0 mm
12:39 PM 42.6°F5.9°C 34.9°F1.6°C 74% 16.0 mph WNW25.7 kmh WNW 24.0 mph38.6 kmh 29.56 in1001.0 mb 0.00 in0.0 mm 0.00 in0.0 mm 0.04 in1.0 mm
12:44 PM 42.6°F5.9°C 34.9°F1.6°C 74% 22.0 mph WNW35.4 kmh WNW 33.0 mph53.1 kmh 29.56 in1001.0 mb 0.00 in0.0 mm 0.00 in0.0 mm 0.04 in1.0 mm
12:49 PM 42.6°F5.9°C 34.2°F1.2°C 72% 24.0 mph WNW38.6 kmh WNW 37.0 mph59.5 kmh 29.56 in1001.0 mb 0.00 in0.0 mm 0.00 in0.0 mm 0.04 in1.0 mm
12:54 PM 42.6°F5.9°C 34.6°F1.4°C 73% 22.0 mph NW35.4 kmh NW 31.0 mph49.9 kmh 29.56 in1001.0 mb 0.00 in0.0 mm 0.00 in0.0 mm 0.04 in1.0 mm
12:59 PM 42.6°F5.9°C 34.2°F1.2°C 72% 24.0 mph WNW38.6 kmh WNW 31.0 mph49.9 kmh 29.57 in1001.4 mb 0.00 in0.0 mm 0.00 in0.0 mm 0.04 in1.0 mm
01:04 PM 42.8°F6.0°C 34.4°F1.3°C 72% 19.0 mph WNW30.6 kmh WNW 28.0 mph45.1 kmh 29.57 in1001.4 mb 0.00 in0.0 mm 0.00 in0.0 mm 0.04 in1.0 mm
01:09 PM 42.6°F5.9°C 34.2°F1.2°C 72% 28.0 mph WNW45.1 kmh WNW 38.0 mph61.2 kmh 29.57 in1001.4 mb 0.00 in0.0 mm 0.00 in0.0 mm 0.04 in1.0 mm
01:14 PM 42.8°F6.0°C 34.4°F1.3°C 72% 20.0 mph W32.2 kmh W 29.0 mph46.7 kmh 29.58 in1001.7 mb 0.00 in0.0 mm 0.00 in0.0 mm 0.04 in1.0 mm
01:19 PM 42.8°F6.0°C 34.8°F1.6°C 73% 24.0 mph W38.6 kmh W 38.0 mph61.2 kmh 29.58 in1001.7 mb 0.00 in0.0 mm 0.00 in0.0 mm 0.04 in1.0 mm
01:24 PM 43.0°F6.1°C 34.6°F1.4°C 72% 19.0 mph WNW30.6 kmh WNW 31.0 mph49.9 kmh 29.58 in1001.7 mb 0.00 in0.0 mm 0.00 in0.0 mm 0.04 in1.0 mm
01:29 PM 43.0°F6.1°C 34.6°F1.4°C 72% 21.0 mph WNW33.8 kmh WNW 35.0 mph56.3 kmh 29.58 in1001.7 mb 0.00 in0.0 mm 0.00 in0.0 mm 0.04 in1.0 mm
01:34 PM 43.2°F6.2°C 34.8°F1.6°C 72% 22.0 mph WNW35.4 kmh WNW 32.0 mph51.5 kmh 29.58 in1001.7 mb 0.00 in0.0 mm 0.00 in0.0 mm 0.04 in1.0 mm
01:39 PM 43.2°F6.2°C 35.1°F1.7°C 73% 22.0 mph W35.4 kmh W 35.0 mph56.3 kmh 29.58 in1001.7 mb 0.00 in0.0 mm 0.00 in0.0 mm 0.04 in1.0 mm
01:44 PM 43.2°F6.2°C 34.8°F1.6°C 72% 26.0 mph WNW41.8 kmh WNW 35.0 mph56.3 kmh 29.59 in1002.0 mb 0.00 in0.0 mm 0.00 in0.0 mm 0.04 in1.0 mm
01:49 PM 43.2°F6.2°C 34.8°F1.6°C 72% 21.0 mph W33.8 kmh W 27.0 mph43.5 kmh 29.59 in1002.0 mb 0.00 in0.0 mm 0.00 in0.0 mm 0.04 in1.0 mm
01:54 PM 43.3°F6.3°C 35.3°F1.8°C 73% 20.0 mph WNW32.2 kmh WNW 30.0 mph48.3 kmh 29.59 in1002.0 mb 0.00 in0.0 mm 0.00 in0.0 mm 0.04 in1.0 mm
01:59 PM 43.3°F6.3°C 34.9°F1.6°C 72% 19.0 mph W30.6 kmh W 25.0 mph40.2 kmh 29.59 in1002.0 mb 0.00 in0.0 mm 0.00 in0.0 mm 0.04 in1.0 mm
02:04 PM 43.3°F6.3°C 34.6°F1.4°C 71% 25.0 mph W40.2 kmh W 34.0 mph54.7 kmh 29.59 in1002.0 mb 0.00 in0.0 mm 0.00 in0.0 mm 0.04 in1.0 mm
02:09 PM 43.3°F6.3°C 34.6°F1.4°C 71% 20.0 mph W32.2 kmh W 38.0 mph61.2 kmh 29.60 in1002.4 mb 0.00 in0.0 mm 0.00 in0.0 mm 0.04 in1.0 mm
02:14 PM 43.3°F6.3°C 34.9°F1.6°C 72% 22.0 mph NW35.4 kmh NW 33.0 mph53.1 kmh 29.60 in1002.4 mb 0.00 in0.0 mm 0.00 in0.0 mm 0.04 in1.0 mm
02:19 PM 43.3°F6.3°C 35.6°F2.0°C 74% 20.0 mph W32.2 kmh W 26.0 mph41.8 kmh 29.60 in1002.4 mb 0.00 in0.0 mm 0.00 in0.0 mm 0.04 in1.0 mm
02:24 PM 43.3°F6.3°C 35.3°F1.8°C 73% 23.0 mph W37.0 kmh W 29.0 mph46.7 kmh 29.60 in1002.4 mb 0.00 in0.0 mm 0.00 in0.0 mm 0.04 in1.0 mm
02:29 PM 43.3°F6.3°C 35.3°F1.8°C 73% 23.0 mph W37.0 kmh W 32.0 mph51.5 kmh 29.60 in1002.4 mb 0.00 in0.0 mm 0.00 in0.0 mm 0.04 in1.0 mm
02:34 PM 43.3°F6.3°C 35.3°F1.8°C 73% 17.0 mph WNW27.4 kmh WNW 24.0 mph38.6 kmh 29.61 in1002.7 mb 0.00 in0.0 mm 0.00 in0.0 mm 0.04 in1.0 mm
02:39 PM 43.3°F6.3°C 34.9°F1.6°C 72% 21.0 mph W33.8 kmh W 34.0 mph54.7 kmh 29.61 in1002.7 mb 0.00 in0.0 mm 0.00 in0.0 mm 0.04 in1.0 mm
02:44 PM 43.3°F6.3°C 35.6°F2.0°C 74% 16.0 mph W25.7 kmh W 24.0 mph38.6 kmh 29.61 in1002.7 mb 0.00 in0.0 mm 0.00 in0.0 mm 0.04 in1.0 mm
02:49 PM 43.3°F6.3°C 35.3°F1.8°C 73% 16.0 mph WNW25.7 kmh WNW 24.0 mph38.6 kmh 29.61 in1002.7 mb 0.00 in0.0 mm 0.00 in0.0 mm 0.04 in1.0 mm
02:54 PM 43.3°F6.3°C 35.6°F2.0°C 74% 20.0 mph W32.2 kmh W 26.0 mph41.8 kmh 29.61 in1002.7 mb 0.00 in0.0 mm 0.00 in0.0 mm 0.04 in1.0 mm
02:59 PM 43.3°F6.3°C 35.3°F1.8°C 73% 20.0 mph WNW32.2 kmh WNW 30.0 mph48.3 kmh 29.61 in1002.7 mb 0.00 in0.0 mm 0.00 in0.0 mm 0.04 in1.0 mm
03:04 PM 43.3°F6.3°C 35.3°F1.8°C 73% 22.0 mph WNW35.4 kmh WNW 34.0 mph54.7 kmh 29.62 in1003.0 mb 0.00 in0.0 mm 0.00 in0.0 mm 0.04 in1.0 mm
03:09 PM 43.3°F6.3°C 36.0°F2.2°C 75% 20.0 mph W32.2 kmh W 25.0 mph40.2 kmh 29.62 in1003.0 mb 0.00 in0.0 mm 0.00 in0.0 mm 0.04 in1.0 mm
03:14 PM 43.3°F6.3°C 36.0°F2.2°C 75% 19.0 mph W30.6 kmh W 28.0 mph45.1 kmh 29.63 in1003.4 mb 0.00 in0.0 mm 0.00 in0.0 mm 0.04 in1.0 mm
03:19 PM 43.3°F6.3°C 35.6°F2.0°C 74% 17.0 mph W27.4 kmh W 28.0 mph45.1 kmh 29.63 in1003.4 mb 0.00 in0.0 mm 0.00 in0.0 mm 0.04 in1.0 mm
03:24 PM 43.3°F6.3°C 35.6°F2.0°C 74% 18.0 mph W29.0 kmh W 28.0 mph45.1 kmh 29.62 in1003.0 mb 0.00 in0.0 mm 0.00 in0.0 mm 0.04 in1.0 mm
03:29 PM 43.3°F6.3°C 35.6°F2.0°C 74% 19.0 mph W30.6 kmh W 27.0 mph43.5 kmh 29.63 in1003.4 mb 0.00 in0.0 mm 0.00 in0.0 mm 0.04 in1.0 mm
03:34 PM 43.3°F6.3°C 36.0°F2.2°C 75% 22.0 mph W35.4 kmh W 31.0 mph49.9 kmh 29.63 in1003.4 mb 0.00 in0.0 mm 0.00 in0.0 mm 0.04 in1.0 mm
03:39 PM 43.3°F6.3°C 35.6°F2.0°C 74% 17.0 mph W27.4 kmh W 27.0 mph43.5 kmh 29.64 in1003.7 mb 0.00 in0.0 mm 0.00 in0.0 mm 0.04 in1.0 mm
03:44 PM 43.3°F6.3°C 35.3°F1.8°C 73% 17.0 mph WNW27.4 kmh WNW 23.0 mph37.0 kmh 29.64 in1003.7 mb 0.00 in0.0 mm 0.00 in0.0 mm 0.04 in1.0 mm
03:49 PM 43.3°F6.3°C 34.9°F1.6°C 72% 26.0 mph W41.8 kmh W 36.0 mph57.9 kmh 29.64 in1003.7 mb 0.00 in0.0 mm 0.00 in0.0 mm 0.04 in1.0 mm
03:54 PM 43.3°F6.3°C 35.3°F1.8°C 73% 20.0 mph W32.2 kmh W 26.0 mph41.8 kmh 29.65 in1004.1 mb 0.00 in0.0 mm 0.00 in0.0 mm 0.04 in1.0 mm
03:59 PM 43.3°F6.3°C 34.9°F1.6°C 72% 25.0 mph W40.2 kmh W 34.0 mph54.7 kmh 29.65 in1004.1 mb 0.00 in0.0 mm 0.00 in0.0 mm 0.04 in1.0 mm
04:04 PM 43.5°F6.4°C 35.1°F1.7°C 72% 22.0 mph W35.4 kmh W 32.0 mph51.5 kmh 29.65 in1004.1 mb 0.00 in0.0 mm 0.00 in0.0 mm 0.04 in1.0 mm
04:09 PM 43.5°F6.4°C 35.5°F1.9°C 73% 17.0 mph W27.4 kmh W 28.0 mph45.1 kmh 29.66 in1004.4 mb 0.00 in0.0 mm 0.00 in0.0 mm 0.04 in1.0 mm
04:14 PM 43.3°F6.3°C 35.3°F1.8°C 73% 19.0 mph W30.6 kmh W 31.0 mph49.9 kmh 29.66 in1004.4 mb 0.00 in0.0 mm 0.00 in0.0 mm 0.04 in1.0 mm
04:19 PM 43.3°F6.3°C 35.6°F2.0°C 74% 19.0 mph W30.6 kmh W 28.0 mph45.1 kmh 29.66 in1004.4 mb 0.00 in0.0 mm 0.00 in0.0 mm 0.04 in1.0 mm
04:24 PM 43.3°F6.3°C 35.3°F1.8°C 73% 18.0 mph W29.0 kmh W 25.0 mph40.2 kmh 29.66 in1004.4 mb 0.00 in0.0 mm 0.00 in0.0 mm 0.04 in1.0 mm
04:29 PM 43.3°F6.3°C 35.6°F2.0°C 74% 22.0 mph W35.4 kmh W 27.0 mph43.5 kmh 29.67 in1004.7 mb 0.00 in0.0 mm 0.00 in0.0 mm 0.04 in1.0 mm
04:34 PM 43.2°F6.2°C 35.8°F2.1°C 75% 16.0 mph W25.7 kmh W 21.0 mph33.8 kmh 29.67 in1004.7 mb 0.00 in0.0 mm 0.00 in0.0 mm 0.04 in1.0 mm
04:39 PM 43.2°F6.2°C 35.5°F1.9°C 74% 14.0 mph W22.5 kmh W 22.0 mph35.4 kmh 29.67 in1004.7 mb 0.00 in0.0 mm 0.00 in0.0 mm 0.04 in1.0 mm
04:44 PM 43.2°F6.2°C 35.5°F1.9°C 74% 20.0 mph W32.2 kmh W 27.0 mph43.5 kmh 29.67 in1004.7 mb 0.00 in0.0 mm 0.00 in0.0 mm 0.04 in1.0 mm
04:49 PM 43.3°F6.3°C 35.6°F2.0°C 74% 16.0 mph W25.7 kmh W 24.0 mph38.6 kmh 29.67 in1004.7 mb 0.00 in0.0 mm 0.00 in0.0 mm 0.04 in1.0 mm
04:54 PM 43.2°F6.2°C 35.5°F1.9°C 74% 19.0 mph W30.6 kmh W 27.0 mph43.5 kmh 29.67 in1004.7 mb 0.00 in0.0 mm 0.00 in0.0 mm 0.04 in1.0 mm
04:59 PM 43.2°F6.2°C 35.1°F1.7°C 73% 18.0 mph W29.0 kmh W 25.0 mph40.2 kmh 29.67 in1004.7 mb 0.00 in0.0 mm 0.00 in0.0 mm 0.04 in1.0 mm
05:04 PM 43.3°F6.3°C 35.3°F1.8°C 73% 17.0 mph W27.4 kmh W 24.0 mph38.6 kmh 29.67 in1004.7 mb 0.00 in0.0 mm 0.00 in0.0 mm 0.04 in1.0 mm
05:09 PM 43.3°F6.3°C 35.6°F2.0°C 74% 18.0 mph W29.0 kmh W 33.0 mph53.1 kmh 29.67 in1004.7 mb 0.00 in0.0 mm 0.00 in0.0 mm 0.04 in1.0 mm
05:14 PM 43.2°F6.2°C 35.1°F1.7°C 73% 20.0 mph W32.2 kmh W 28.0 mph45.1 kmh 29.67 in1004.7 mb 0.00 in0.0 mm 0.00 in0.0 mm 0.04 in1.0 mm
05:19 PM 43.2°F6.2°C 35.5°F1.9°C 74% 20.0 mph W32.2 kmh W 31.0 mph49.9 kmh 29.68 in1005.1 mb 0.00 in0.0 mm 0.00 in0.0 mm 0.04 in1.0 mm
05:24 PM 43.2°F6.2°C 35.5°F1.9°C 74% 20.0 mph W32.2 kmh W 30.0 mph48.3 kmh 29.68 in1005.1 mb 0.00 in0.0 mm 0.00 in0.0 mm 0.04 in1.0 mm
05:29 PM 43.3°F6.3°C 35.6°F2.0°C 74% 17.0 mph W27.4 kmh W 25.0 mph40.2 kmh 29.68 in1005.1 mb 0.00 in0.0 mm 0.00 in0.0 mm 0.04 in1.0 mm
05:34 PM 43.2°F6.2°C 35.8°F2.1°C 75% 15.0 mph W24.1 kmh W 31.0 mph49.9 kmh 29.68 in1005.1 mb 0.00 in0.0 mm 0.00 in0.0 mm 0.04 in1.0 mm
05:39 PM 43.3°F6.3°C 35.6°F2.0°C 74% 15.0 mph W24.1 kmh W 25.0 mph40.2 kmh 29.69 in1005.4 mb 0.00 in0.0 mm 0.00 in0.0 mm 0.04 in1.0 mm
05:44 PM 43.3°F6.3°C 36.0°F2.2°C 75% 12.0 mph W19.3 kmh W 18.0 mph29.0 kmh 29.69 in1005.4 mb 0.00 in0.0 mm 0.00 in0.0 mm 0.04 in1.0 mm
05:49 PM 43.3°F6.3°C 36.0°F2.2°C 75% 14.0 mph W22.5 kmh W 20.0 mph32.2 kmh 29.69 in1005.4 mb 0.00 in0.0 mm 0.00 in0.0 mm 0.04 in1.0 mm
05:54 PM 43.5°F6.4°C 35.8°F2.1°C 74% 11.0 mph WSW17.7 kmh WSW 16.0 mph25.7 kmh 29.69 in1005.4 mb 0.00 in0.0 mm 0.00 in0.0 mm 0.04 in1.0 mm
05:59 PM 43.5°F6.4°C 36.1°F2.3°C 75% 13.0 mph W20.9 kmh W 18.0 mph29.0 kmh 29.69 in1005.4 mb 0.00 in0.0 mm 0.00 in0.0 mm 0.04 in1.0 mm
06:04 PM 43.5°F6.4°C 35.5°F1.9°C 73% 16.0 mph W25.7 kmh W 20.0 mph32.2 kmh 29.69 in1005.4 mb 0.00 in0.0 mm 0.00 in0.0 mm 0.04 in1.0 mm
06:09 PM 43.5°F6.4°C 35.1°F1.7°C 72% 16.0 mph W25.7 kmh W 29.0 mph46.7 kmh 29.69 in1005.4 mb 0.00 in0.0 mm 0.00 in0.0 mm 0.04 in1.0 mm
06:14 PM 43.5°F6.4°C 35.1°F1.7°C 72% 16.0 mph WNW25.7 kmh WNW 23.0 mph37.0 kmh 29.69 in1005.4 mb 0.00 in0.0 mm 0.00 in0.0 mm 0.04 in1.0 mm
06:19 PM 43.5°F6.4°C 35.5°F1.9°C 73% 14.0 mph W22.5 kmh W 26.0 mph41.8 kmh 29.69 in1005.4 mb 0.00 in0.0 mm 0.00 in0.0 mm 0.04 in1.0 mm
06:24 PM 43.5°F6.4°C 36.1°F2.3°C 75% 12.0 mph W19.3 kmh W 17.0 mph27.4 kmh 29.69 in1005.4 mb 0.00 in0.0 mm 0.00 in0.0 mm 0.04 in1.0 mm
06:29 PM 43.5°F6.4°C 35.8°F2.1°C 74% 14.0 mph W22.5 kmh W 20.0 mph32.2 kmh 29.70 in1005.8 mb 0.00 in0.0 mm 0.00 in0.0 mm 0.04 in1.0 mm
06:34 PM 43.5°F6.4°C 36.1°F2.3°C 75% 13.0 mph WSW20.9 kmh WSW 21.0 mph33.8 kmh 29.69 in1005.4 mb 0.00 in0.0 mm 0.00 in0.0 mm 0.04 in1.0 mm
06:39 PM 43.3°F6.3°C 36.0°F2.2°C 75% 13.0 mph W20.9 kmh W 20.0 mph32.2 kmh 29.69 in1005.4 mb 0.00 in0.0 mm 0.00 in0.0 mm 0.04 in1.0 mm
06:44 PM 43.2°F6.2°C 36.1°F2.3°C 76% 11.0 mph WSW17.7 kmh WSW 15.0 mph24.1 kmh 29.69 in1005.4 mb 0.00 in0.0 mm 0.00 in0.0 mm 0.04 in1.0 mm
06:49 PM 43.2°F6.2°C 35.8°F2.1°C 75% 15.0 mph W24.1 kmh W 24.0 mph38.6 kmh 29.70 in1005.8 mb 0.00 in0.0 mm 0.00 in0.0 mm 0.04 in1.0 mm
06:54 PM 43.2°F6.2°C 35.8°F2.1°C 75% 14.0 mph W22.5 kmh W 20.0 mph32.2 kmh 29.69 in1005.4 mb 0.00 in0.0 mm 0.00 in0.0 mm 0.04 in1.0 mm
06:59 PM 43.2°F6.2°C 35.8°F2.1°C 75% 17.0 mph W27.4 kmh W 21.0 mph33.8 kmh 29.70 in1005.8 mb 0.00 in0.0 mm 0.00 in0.0 mm 0.04 in1.0 mm
07:04 PM 43.2°F6.2°C 35.5°F1.9°C 74% 13.0 mph WSW20.9 kmh WSW 19.0 mph30.6 kmh 29.70 in1005.8 mb 0.00 in0.0 mm 0.00 in0.0 mm 0.04 in1.0 mm
07:09 PM 43.3°F6.3°C 35.6°F2.0°C 74% 15.0 mph W24.1 kmh W 22.0 mph35.4 kmh 29.69 in1005.4 mb 0.00 in0.0 mm 0.00 in0.0 mm 0.04 in1.0 mm
07:14 PM 43.3°F6.3°C 35.6°F2.0°C 74% 12.0 mph WSW19.3 kmh WSW 18.0 mph29.0 kmh 29.69 in1005.4 mb 0.00 in0.0 mm 0.00 in0.0 mm 0.04 in1.0 mm
07:19 PM 43.3°F6.3°C 35.6°F2.0°C 74% 12.0 mph W19.3 kmh W 20.0 mph32.2 kmh 29.69 in1005.4 mb 0.00 in0.0 mm 0.00 in0.0 mm 0.04 in1.0 mm
07:24 PM 43.3°F6.3°C 36.0°F2.2°C 75% 14.0 mph W22.5 kmh W 21.0 mph33.8 kmh 29.69 in1005.4 mb 0.00 in0.0 mm 0.00 in0.0 mm 0.04 in1.0 mm
07:29 PM 43.3°F6.3°C 36.0°F2.2°C 75% 15.0 mph W24.1 kmh W 23.0 mph37.0 kmh 29.69 in1005.4 mb 0.00 in0.0 mm 0.00 in0.0 mm 0.04 in1.0 mm
07:34 PM 43.3°F6.3°C 36.0°F2.2°C 75% 13.0 mph W20.9 kmh W 19.0 mph30.6 kmh 29.70 in1005.8 mb 0.00 in0.0 mm 0.00 in0.0 mm 0.04 in1.0 mm
07:39 PM 43.5°F6.4°C 36.1°F2.3°C 75% 12.0 mph WSW19.3 kmh WSW 20.0 mph32.2 kmh 29.70 in1005.8 mb 0.00 in0.0 mm 0.00 in0.0 mm 0.04 in1.0 mm
07:44 PM 43.5°F6.4°C 36.1°F2.3°C 75% 14.0 mph W22.5 kmh W 21.0 mph33.8 kmh 29.70 in1005.8 mb 0.00 in0.0 mm 0.00 in0.0 mm 0.04 in1.0 mm
07:49 PM 43.5°F6.4°C 35.8°F2.1°C 74% 12.0 mph W19.3 kmh W 18.0 mph29.0 kmh 29.70 in1005.8 mb 0.00 in0.0 mm 0.00 in0.0 mm 0.04 in1.0 mm
07:54 PM 43.7°F6.5°C 35.6°F2.0°C 73% 10.0 mph WSW16.1 kmh WSW 13.0 mph20.9 kmh 29.69 in1005.4 mb 0.00 in0.0 mm 0.00 in0.0 mm 0.04 in1.0 mm
07:59 PM 43.7°F6.5°C 35.6°F2.0°C 73% 15.0 mph W24.1 kmh W 19.0 mph30.6 kmh 29.69 in1005.4 mb 0.00 in0.0 mm 0.00 in0.0 mm 0.04 in1.0 mm
08:04 PM 43.7°F6.5°C 36.0°F2.2°C 74% 16.0 mph WSW25.7 kmh WSW 24.0 mph38.6 kmh 29.69 in1005.4 mb 0.00 in0.0 mm 0.00 in0.0 mm 0.04 in1.0 mm
08:09 PM 43.9°F6.6°C 35.5°F1.9°C 72% 14.0 mph WSW22.5 kmh WSW 20.0 mph32.2 kmh 29.69 in1005.4 mb 0.00 in0.0 mm 0.00 in0.0 mm 0.04 in1.0 mm
08:14 PM 43.7°F6.5°C 35.3°F1.8°C 72% 16.0 mph W25.7 kmh W 20.0 mph32.2 kmh 29.69 in1005.4 mb 0.00 in0.0 mm 0.00 in0.0 mm 0.04 in1.0 mm
08:19 PM 43.5°F6.4°C 35.8°F2.1°C 74% 13.0 mph W20.9 kmh W 28.0 mph45.1 kmh 29.69 in1005.4 mb 0.00 in0.0 mm 0.00 in0.0 mm 0.04 in1.0 mm
08:24 PM 43.5°F6.4°C 35.5°F1.9°C 73% 14.0 mph W22.5 kmh W 23.0 mph37.0 kmh 29.68 in1005.1 mb 0.00 in0.0 mm 0.00 in0.0 mm 0.04 in1.0 mm
08:29 PM 43.3°F6.3°C 35.6°F2.0°C 74% 14.0 mph W22.5 kmh W 19.0 mph30.6 kmh 29.69 in1005.4 mb 0.00 in0.0 mm 0.00 in0.0 mm 0.04 in1.0 mm
08:34 PM 43.3°F6.3°C 36.0°F2.2°C 75% 11.0 mph WSW17.7 kmh WSW 16.0 mph25.7 kmh 29.68 in1005.1 mb 0.00 in0.0 mm 0.00 in0.0 mm 0.04 in1.0 mm
08:39 PM 43.2°F6.2°C 35.5°F1.9°C 74% 13.0 mph W20.9 kmh W 17.0 mph27.4 kmh 29.68 in1005.1 mb 0.00 in0.0 mm 0.00 in0.0 mm 0.04 in1.0 mm
08:44 PM 43.2°F6.2°C 35.1°F1.7°C 73% 14.0 mph W22.5 kmh W 21.0 mph33.8 kmh 29.68 in1005.1 mb 0.00 in0.0 mm 0.00 in0.0 mm 0.04 in1.0 mm
08:49 PM 43.3°F6.3°C 35.6°F2.0°C 74% 13.0 mph WSW20.9 kmh WSW 21.0 mph33.8 kmh 29.68 in1005.1 mb 0.00 in0.0 mm 0.00 in0.0 mm 0.04 in1.0 mm
08:54 PM 43.3°F6.3°C 35.6°F2.0°C 74% 14.0 mph WSW22.5 kmh WSW 19.0 mph30.6 kmh 29.69 in1005.4 mb 0.00 in0.0 mm 0.00 in0.0 mm 0.04 in1.0 mm
08:59 PM 43.3°F6.3°C 36.0°F2.2°C 75% 14.0 mph WSW22.5 kmh WSW 20.0 mph32.2 kmh 29.69 in1005.4 mb 0.00 in0.0 mm 0.00 in0.0 mm 0.04 in1.0 mm
09:04 PM 43.3°F6.3°C 35.6°F2.0°C 74% 13.0 mph W20.9 kmh W 19.0 mph30.6 kmh 29.69 in1005.4 mb 0.00 in0.0 mm 0.00 in0.0 mm 0.04 in1.0 mm
09:09 PM 43.3°F6.3°C 35.6°F2.0°C 74% 14.0 mph W22.5 kmh W 20.0 mph32.2 kmh 29.69 in1005.4 mb 0.00 in0.0 mm 0.00 in0.0 mm 0.04 in1.0 mm
09:14 PM 43.2°F6.2°C 35.5°F1.9°C 74% 17.0 mph W27.4 kmh W 26.0 mph41.8 kmh 29.69 in1005.4 mb 0.00 in0.0 mm 0.00 in0.0 mm 0.04 in1.0 mm
09:19 PM 43.2°F6.2°C 35.5°F1.9°C 74% 14.0 mph W22.5 kmh W 19.0 mph30.6 kmh 29.69 in1005.4 mb 0.00 in0.0 mm 0.00 in0.0 mm 0.04 in1.0 mm
09:24 PM 43.2°F6.2°C 35.8°F2.1°C 75% 16.0 mph W25.7 kmh W 20.0 mph32.2 kmh 29.69 in1005.4 mb 0.00 in0.0 mm 0.00 in0.0 mm 0.04 in1.0 mm
09:29 PM 43.2°F6.2°C 35.8°F2.1°C 75% 13.0 mph W20.9 kmh W 17.0 mph27.4 kmh 29.69 in1005.4 mb 0.00 in0.0 mm 0.00 in0.0 mm 0.04 in1.0 mm
09:34 PM 43.2°F6.2°C 35.8°F2.1°C 75% 13.0 mph WSW20.9 kmh WSW 22.0 mph35.4 kmh 29.70 in1005.8 mb 0.00 in0.0 mm 0.00 in0.0 mm 0.04 in1.0 mm
09:39 PM 43.2°F6.2°C 35.5°F1.9°C 74% 16.0 mph W25.7 kmh W 26.0 mph41.8 kmh 29.69 in1005.4 mb 0.00 in0.0 mm 0.00 in0.0 mm 0.04 in1.0 mm
09:44 PM 43.2°F6.2°C 35.5°F1.9°C 74% 18.0 mph WSW29.0 kmh WSW 26.0 mph41.8 kmh 29.70 in1005.8 mb 0.00 in0.0 mm 0.00 in0.0 mm 0.04 in1.0 mm
09:49 PM 43.3°F6.3°C 35.6°F2.0°C 74% 15.0 mph W24.1 kmh W 21.0 mph33.8 kmh 29.70 in1005.8 mb 0.00 in0.0 mm 0.00 in0.0 mm 0.04 in1.0 mm
09:54 PM 43.3°F6.3°C 35.6°F2.0°C 74% 12.0 mph W19.3 kmh W 16.0 mph25.7 kmh 29.70 in1005.8 mb 0.00 in0.0 mm 0.00 in0.0 mm 0.04 in1.0 mm
09:59 PM 43.3°F6.3°C 35.6°F2.0°C 74% 13.0 mph W20.9 kmh W 18.0 mph29.0 kmh 29.70 in1005.8 mb 0.00 in0.0 mm 0.00 in0.0 mm 0.04 in1.0 mm
10:04 PM 43.3°F6.3°C 35.6°F2.0°C 74% 14.0 mph W22.5 kmh W 21.0 mph33.8 kmh 29.70 in1005.8 mb 0.00 in0.0 mm 0.00 in0.0 mm 0.04 in1.0 mm
10:09 PM 43.3°F6.3°C 35.6°F2.0°C 74% 10.0 mph W16.1 kmh W 14.0 mph22.5 kmh 29.70 in1005.8 mb 0.00 in0.0 mm 0.00 in0.0 mm 0.04 in1.0 mm
10:14 PM 43.3°F6.3°C 35.6°F2.0°C 74% 12.0 mph WSW19.3 kmh WSW 15.0 mph24.1 kmh 29.70 in1005.8 mb 0.00 in0.0 mm 0.00 in0.0 mm 0.04 in1.0 mm
10:19 PM 43.2°F6.2°C 36.1°F2.3°C 76% 11.0 mph W17.7 kmh W 15.0 mph24.1 kmh 29.70 in1005.8 mb 0.00 in0.0 mm 0.00 in0.0 mm 0.04 in1.0 mm
10:24 PM 43.2°F6.2°C 36.1°F2.3°C 76% 8.0 mph W12.9 kmh W 15.0 mph24.1 kmh 29.69 in1005.4 mb 0.00 in0.0 mm 0.00 in0.0 mm 0.04 in1.0 mm
10:29 PM 43.2°F6.2°C 35.8°F2.1°C 75% 12.0 mph W19.3 kmh W 19.0 mph30.6 kmh 29.69 in1005.4 mb 0.00 in0.0 mm 0.00 in0.0 mm 0.04 in1.0 mm
10:34 PM 43.3°F6.3°C 36.0°F2.2°C 75% 10.0 mph W16.1 kmh W 16.0 mph25.7 kmh 29.69 in1005.4 mb 0.00 in0.0 mm 0.00 in0.0 mm 0.04 in1.0 mm
10:39 PM 43.2°F6.2°C 36.1°F2.3°C 76% 8.0 mph WSW12.9 kmh WSW 14.0 mph22.5 kmh 29.69 in1005.4 mb 0.00 in0.0 mm 0.00 in0.0 mm 0.04 in1.0 mm
10:44 PM 43.3°F6.3°C 36.3°F2.4°C 76% 7.0 mph WNW11.3 kmh WNW 14.0 mph22.5 kmh 29.69 in1005.4 mb 0.00 in0.0 mm 0.00 in0.0 mm 0.04 in1.0 mm
10:49 PM 43.5°F6.4°C 36.1°F2.3°C 75% 12.0 mph WSW19.3 kmh WSW 24.0 mph38.6 kmh 29.68 in1005.1 mb 0.00 in0.0 mm 0.00 in0.0 mm 0.04 in1.0 mm
10:54 PM 43.5°F6.4°C 36.1°F2.3°C 75% 5.0 mph WSW8.0 kmh WSW 11.0 mph17.7 kmh 29.68 in1005.1 mb 0.00 in0.0 mm 0.00 in0.0 mm 0.04 in1.0 mm
10:59 PM 43.5°F6.4°C 36.1°F2.3°C 75% 9.0 mph W14.5 kmh W 12.0 mph19.3 kmh 29.68 in1005.1 mb 0.00 in0.0 mm 0.00 in0.0 mm 0.04 in1.0 mm
11:04 PM 43.5°F6.4°C 36.1°F2.3°C 75% 9.0 mph WSW14.5 kmh WSW 13.0 mph20.9 kmh 29.68 in1005.1 mb 0.00 in0.0 mm 0.00 in0.0 mm 0.04 in1.0 mm
11:09 PM 43.5°F6.4°C 36.1°F2.3°C 75% 12.0 mph WSW19.3 kmh WSW 20.0 mph32.2 kmh 29.68 in1005.1 mb 0.00 in0.0 mm 0.00 in0.0 mm 0.04 in1.0 mm
11:14 PM 43.5°F6.4°C 36.1°F2.3°C 75% 7.0 mph WSW11.3 kmh WSW 15.0 mph24.1 kmh 29.67 in1004.7 mb 0.00 in0.0 mm 0.00 in0.0 mm 0.04 in1.0 mm
11:19 PM 43.7°F6.5°C 36.3°F2.4°C 75% 10.0 mph W16.1 kmh W 16.0 mph25.7 kmh 29.67 in1004.7 mb 0.00 in0.0 mm 0.00 in0.0 mm 0.04 in1.0 mm
11:24 PM 43.7°F6.5°C 36.3°F2.4°C 75% 8.0 mph SSW12.9 kmh SSW 14.0 mph22.5 kmh 29.67 in1004.7 mb 0.00 in0.0 mm 0.00 in0.0 mm 0.04 in1.0 mm
11:29 PM 43.9°F6.6°C 36.5°F2.5°C 75% 7.0 mph SW11.3 kmh SW 13.0 mph20.9 kmh 29.67 in1004.7 mb 0.00 in0.0 mm 0.00 in0.0 mm 0.04 in1.0 mm
11:34 PM 43.9°F6.6°C 36.5°F2.5°C 75% 9.0 mph WSW14.5 kmh WSW 13.0 mph20.9 kmh 29.67 in1004.7 mb 0.00 in0.0 mm 0.00 in0.0 mm 0.04 in1.0 mm
11:39 PM 43.9°F6.6°C 36.5°F2.5°C 75% 12.0 mph SW19.3 kmh SW 19.0 mph30.6 kmh 29.67 in1004.7 mb 0.00 in0.0 mm 0.00 in0.0 mm 0.04 in1.0 mm
11:44 PM 43.9°F6.6°C 36.5°F2.5°C 75% 9.0 mph SW14.5 kmh SW 13.0 mph20.9 kmh 29.66 in1004.4 mb 0.00 in0.0 mm 0.00 in0.0 mm 0.04 in1.0 mm
11:49 PM 43.9°F6.6°C 36.5°F2.5°C 75% 12.0 mph W19.3 kmh W 19.0 mph30.6 kmh 29.66 in1004.4 mb 0.00 in0.0 mm 0.00 in0.0 mm 0.04 in1.0 mm
11:54 PM 43.9°F6.6°C 36.8°F2.7°C 76% 8.0 mph SW12.9 kmh SW 11.0 mph17.7 kmh 29.66 in1004.4 mb 0.00 in0.0 mm 0.00 in0.0 mm 0.04 in1.0 mm
11:59 PM 43.9°F6.6°C 37.2°F2.9°C 77% 6.0 mph SW9.7 kmh SW 10.0 mph16.1 kmh 29.65 in1004.1 mb 0.00 in0.0 mm 0.00 in0.0 mm 0.04 in1.0 mm